sensor_id;sensor_type;location;lat;lon;timestamp;P1;durP1;ratioP1;P2;durP2;ratioP2
5297;SDS011;14738;42.668;23.250;2023-12-20T00:02:07;45.70;;;28.10;;
5297;SDS011;14738;42.668;23.250;2023-12-20T00:04:32;36.17;;;23.60;;
5297;SDS011;14738;42.668;23.250;2023-12-20T00:06:58;33.77;;;23.57;;
5297;SDS011;14738;42.668;23.250;2023-12-20T00:09:23;34.33;;;24.50;;
5297;SDS011;14738;42.668;23.250;2023-12-20T00:11:49;36.80;;;22.90;;
5297;SDS011;14738;42.668;23.250;2023-12-20T00:14:14;35.83;;;23.07;;
5297;SDS011;14738;42.668;23.250;2023-12-20T00:16:39;36.63;;;23.57;;
5297;SDS011;14738;42.668;23.250;2023-12-20T00:19:05;37.40;;;21.20;;
5297;SDS011;14738;42.668;23.250;2023-12-20T00:21:30;33.37;;;22.07;;
5297;SDS011;14738;42.668;23.250;2023-12-20T00:23:56;36.60;;;24.37;;
5297;SDS011;14738;42.668;23.250;2023-12-20T00:26:21;35.77;;;22.77;;
5297;SDS011;14738;42.668;23.250;2023-12-20T00:28:46;33.30;;;23.27;;
5297;SDS011;14738;42.668;23.250;2023-12-20T00:31:12;35.00;;;21.87;;
5297;SDS011;14738;42.668;23.250;2023-12-20T00:33:37;30.17;;;20.47;;
5297;SDS011;14738;42.668;23.250;2023-12-20T00:36:04;33.30;;;21.57;;
5297;SDS011;14738;42.668;23.250;2023-12-20T00:38:30;31.33;;;22.27;;
5297;SDS011;14738;42.668;23.250;2023-12-20T00:40:55;34.70;;;22.10;;
5297;SDS011;14738;42.668;23.250;2023-12-20T00:43:21;29.03;;;17.93;;
5297;SDS011;14738;42.668;23.250;2023-12-20T00:45:46;26.37;;;16.03;;
5297;SDS011;14738;42.668;23.250;2023-12-20T00:48:12;20.70;;;15.37;;
5297;SDS011;14738;42.668;23.250;2023-12-20T00:50:37;30.73;;;14.73;;
5297;SDS011;14738;42.668;23.250;2023-12-20T00:53:02;31.53;;;20.63;;
5297;SDS011;14738;42.668;23.250;2023-12-20T00:55:28;29.87;;;18.87;;
5297;SDS011;14738;42.668;23.250;2023-12-20T00:57:53;32.30;;;18.63;;
5297;SDS011;14738;42.668;23.250;2023-12-20T01:00:19;29.37;;;20.30;;
5297;SDS011;14738;42.668;23.250;2023-12-20T01:02:44;32.10;;;20.80;;
5297;SDS011;14738;42.668;23.250;2023-12-20T01:05:11;32.23;;;21.93;;
5297;SDS011;14738;42.668;23.250;2023-12-20T01:07:37;30.43;;;18.90;;
5297;SDS011;14738;42.668;23.250;2023-12-20T01:10:02;26.37;;;17.77;;
5297;SDS011;14738;42.668;23.250;2023-12-20T01:12:28;26.50;;;17.70;;
5297;SDS011;14738;42.668;23.250;2023-12-20T01:14:53;29.30;;;19.20;;
5297;SDS011;14738;42.668;23.250;2023-12-20T01:17:19;25.77;;;19.20;;
5297;SDS011;14738;42.668;23.250;2023-12-20T01:19:44;31.77;;;19.17;;
5297;SDS011;14738;42.668;23.250;2023-12-20T01:22:09;29.87;;;19.33;;
5297;SDS011;14738;42.668;23.250;2023-12-20T01:24:35;22.57;;;17.80;;
5297;SDS011;14738;42.668;23.250;2023-12-20T01:27:00;28.77;;;18.50;;
5297;SDS011;14738;42.668;23.250;2023-12-20T01:29:25;32.87;;;20.60;;
5297;SDS011;14738;42.668;23.250;2023-12-20T01:31:51;29.50;;;18.63;;
5297;SDS011;14738;42.668;23.250;2023-12-20T01:34:16;32.97;;;18.70;;
5297;SDS011;14738;42.668;23.250;2023-12-20T01:36:42;31.30;;;19.00;;
5297;SDS011;14738;42.668;23.250;2023-12-20T01:39:08;31.33;;;17.60;;
5297;SDS011;14738;42.668;23.250;2023-12-20T01:41:33;22.50;;;17.80;;
5297;SDS011;14738;42.668;23.250;2023-12-20T01:43:58;28.47;;;17.30;;
5297;SDS011;14738;42.668;23.250;2023-12-20T01:46:24;28.80;;;17.43;;
5297;SDS011;14738;42.668;23.250;2023-12-20T01:48:50;31.17;;;18.87;;
5297;SDS011;14738;42.668;23.250;2023-12-20T01:51:16;26.70;;;17.27;;
5297;SDS011;14738;42.668;23.250;2023-12-20T01:53:42;25.57;;;17.47;;
5297;SDS011;14738;42.668;23.250;2023-12-20T01:56:08;26.10;;;18.20;;
5297;SDS011;14738;42.668;23.250;2023-12-20T01:58:35;27.40;;;17.27;;
5297;SDS011;14738;42.668;23.250;2023-12-20T02:01:08;22.73;;;14.90;;
5297;SDS011;14738;42.668;23.250;2023-12-20T02:03:34;23.40;;;15.20;;
5297;SDS011;14738;42.668;23.250;2023-12-20T02:06:01;21.03;;;15.20;;
5297;SDS011;14738;42.668;23.250;2023-12-20T02:08:28;21.07;;;15.03;;
5297;SDS011;14738;42.668;23.250;2023-12-20T02:10:53;21.90;;;14.97;;
5297;SDS011;14738;42.668;23.250;2023-12-20T02:13:20;22.43;;;15.67;;
5297;SDS011;14738;42.668;23.250;2023-12-20T02:15:45;22.57;;;14.70;;
5297;SDS011;14738;42.668;23.250;2023-12-20T02:18:11;19.20;;;14.73;;
5297;SDS011;14738;42.668;23.250;2023-12-20T02:20:40;21.40;;;14.20;;
5297;SDS011;14738;42.668;23.250;2023-12-20T02:23:06;22.50;;;14.83;;
5297;SDS011;14738;42.668;23.250;2023-12-20T02:25:31;20.60;;;15.47;;
5297;SDS011;14738;42.668;23.250;2023-12-20T02:27:56;19.63;;;14.40;;
5297;SDS011;14738;42.668;23.250;2023-12-20T02:30:22;20.33;;;16.03;;
5297;SDS011;14738;42.668;23.250;2023-12-20T02:32:48;22.57;;;15.47;;
5297;SDS011;14738;42.668;23.250;2023-12-20T02:35:15;21.83;;;15.70;;
5297;SDS011;14738;42.668;23.250;2023-12-20T02:37:40;21.30;;;15.27;;
5297;SDS011;14738;42.668;23.250;2023-12-20T02:40:06;26.13;;;14.90;;
5297;SDS011;14738;42.668;23.250;2023-12-20T02:42:32;24.33;;;15.40;;
5297;SDS011;14738;42.668;23.250;2023-12-20T02:44:57;24.70;;;16.70;;
5297;SDS011;14738;42.668;23.250;2023-12-20T02:47:22;21.27;;;15.60;;
5297;SDS011;14738;42.668;23.250;2023-12-20T02:49:48;21.80;;;15.90;;
5297;SDS011;14738;42.668;23.250;2023-12-20T02:52:14;22.40;;;16.50;;
5297;SDS011;14738;42.668;23.250;2023-12-20T02:54:39;25.37;;;16.07;;
5297;SDS011;14738;42.668;23.250;2023-12-20T02:57:05;24.13;;;17.00;;
5297;SDS011;14738;42.668;23.250;2023-12-20T02:59:30;24.20;;;16.50;;
5297;SDS011;14738;42.668;23.250;2023-12-20T03:01:56;29.80;;;21.20;;
5297;SDS011;14738;42.668;23.250;2023-12-20T03:04:21;27.13;;;18.80;;
5297;SDS011;14738;42.668;23.250;2023-12-20T03:06:46;33.27;;;19.90;;
5297;SDS011;14738;42.668;23.250;2023-12-20T03:09:12;26.83;;;18.70;;
5297;SDS011;14738;42.668;23.250;2023-12-20T03:11:37;30.90;;;18.63;;
5297;SDS011;14738;42.668;23.250;2023-12-20T03:14:02;25.10;;;15.73;;
5297;SDS011;14738;42.668;23.250;2023-12-20T03:16:28;24.40;;;15.90;;
5297;SDS011;14738;42.668;23.250;2023-12-20T03:18:53;22.20;;;16.20;;
5297;SDS011;14738;42.668;23.250;2023-12-20T03:21:18;22.63;;;14.37;;
5297;SDS011;14738;42.668;23.250;2023-12-20T03:23:44;24.93;;;15.23;;
5297;SDS011;14738;42.668;23.250;2023-12-20T03:26:10;20.30;;;14.37;;
5297;SDS011;14738;42.668;23.250;2023-12-20T03:28:36;20.40;;;13.83;;
5297;SDS011;14738;42.668;23.250;2023-12-20T03:31:01;20.63;;;15.37;;
5297;SDS011;14738;42.668;23.250;2023-12-20T03:33:27;19.27;;;13.10;;
5297;SDS011;14738;42.668;23.250;2023-12-20T03:35:53;18.40;;;14.07;;
5297;SDS011;14738;42.668;23.250;2023-12-20T03:38:18;19.27;;;13.80;;
5297;SDS011;14738;42.668;23.250;2023-12-20T03:40:44;19.37;;;12.77;;
5297;SDS011;14738;42.668;23.250;2023-12-20T03:43:09;19.17;;;12.83;;
5297;SDS011;14738;42.668;23.250;2023-12-20T03:45:34;20.37;;;14.27;;
5297;SDS011;14738;42.668;23.250;2023-12-20T03:48:00;24.73;;;15.30;;
5297;SDS011;14738;42.668;23.250;2023-12-20T03:50:26;26.33;;;19.67;;
5297;SDS011;14738;42.668;23.250;2023-12-20T03:52:51;44.17;;;32.30;;
5297;SDS011;14738;42.668;23.250;2023-12-20T03:55:17;32.07;;;22.87;;
5297;SDS011;14738;42.668;23.250;2023-12-20T03:57:43;27.97;;;19.93;;
5297;SDS011;14738;42.668;23.250;2023-12-20T04:00:08;30.37;;;22.80;;
5297;SDS011;14738;42.668;23.250;2023-12-20T04:02:35;36.37;;;25.27;;
5297;SDS011;14738;42.668;23.250;2023-12-20T04:05:05;40.93;;;25.33;;
5297;SDS011;14738;42.668;23.250;2023-12-20T04:07:31;32.50;;;24.13;;
5297;SDS011;14738;42.668;23.250;2023-12-20T04:09:56;32.70;;;22.53;;
5297;SDS011;14738;42.668;23.250;2023-12-20T04:12:22;35.93;;;23.47;;
5297;SDS011;14738;42.668;23.250;2023-12-20T04:14:47;32.67;;;22.77;;
5297;SDS011;14738;42.668;23.250;2023-12-20T04:17:13;39.50;;;22.00;;
5297;SDS011;14738;42.668;23.250;2023-12-20T04:19:40;31.37;;;20.60;;
5297;SDS011;14738;42.668;23.250;2023-12-20T04:22:06;27.73;;;19.00;;
5297;SDS011;14738;42.668;23.250;2023-12-20T04:24:31;30.50;;;19.30;;
5297;SDS011;14738;42.668;23.250;2023-12-20T04:26:56;28.07;;;19.67;;
5297;SDS011;14738;42.668;23.250;2023-12-20T04:29:22;28.83;;;20.70;;
5297;SDS011;14738;42.668;23.250;2023-12-20T04:31:47;31.70;;;19.07;;
5297;SDS011;14738;42.668;23.250;2023-12-20T04:34:12;28.93;;;19.03;;
5297;SDS011;14738;42.668;23.250;2023-12-20T04:36:38;27.33;;;18.50;;
5297;SDS011;14738;42.668;23.250;2023-12-20T04:39:03;31.27;;;17.93;;
5297;SDS011;14738;42.668;23.250;2023-12-20T04:41:29;40.67;;;20.33;;
5297;SDS011;14738;42.668;23.250;2023-12-20T04:43:55;27.80;;;19.20;;
5297;SDS011;14738;42.668;23.250;2023-12-20T04:46:21;26.30;;;18.80;;
5297;SDS011;14738;42.668;23.250;2023-12-20T04:48:46;31.20;;;19.70;;
5297;SDS011;14738;42.668;23.250;2023-12-20T04:51:11;30.57;;;20.47;;
5297;SDS011;14738;42.668;23.250;2023-12-20T04:53:37;33.57;;;20.77;;
5297;SDS011;14738;42.668;23.250;2023-12-20T04:56:02;37.20;;;22.30;;
5297;SDS011;14738;42.668;23.250;2023-12-20T04:58:28;30.77;;;21.37;;
5297;SDS011;14738;42.668;23.250;2023-12-20T05:00:53;35.83;;;20.37;;
5297;SDS011;14738;42.668;23.250;2023-12-20T05:03:18;30.93;;;20.03;;
5297;SDS011;14738;42.668;23.250;2023-12-20T05:05:44;27.83;;;17.47;;
5297;SDS011;14738;42.668;23.250;2023-12-20T05:08:09;22.37;;;14.07;;
5297;SDS011;14738;42.668;23.250;2023-12-20T05:10:34;20.97;;;15.87;;
5297;SDS011;14738;42.668;23.250;2023-12-20T05:13:01;19.90;;;16.00;;
5297;SDS011;14738;42.668;23.250;2023-12-20T05:15:26;22.13;;;15.77;;
5297;SDS011;14738;42.668;23.250;2023-12-20T05:17:52;24.80;;;17.33;;
5297;SDS011;14738;42.668;23.250;2023-12-20T05:20:17;26.07;;;17.20;;
5297;SDS011;14738;42.668;23.250;2023-12-20T05:22:43;38.90;;;21.43;;
5297;SDS011;14738;42.668;23.250;2023-12-20T05:25:09;38.27;;;21.43;;
5297;SDS011;14738;42.668;23.250;2023-12-20T05:27:35;31.90;;;23.03;;
5297;SDS011;14738;42.668;23.250;2023-12-20T05:30:00;33.20;;;25.13;;
5297;SDS011;14738;42.668;23.250;2023-12-20T05:32:26;35.23;;;24.27;;
5297;SDS011;14738;42.668;23.250;2023-12-20T05:34:51;35.50;;;22.33;;
5297;SDS011;14738;42.668;23.250;2023-12-20T05:37:16;36.87;;;25.10;;
5297;SDS011;14738;42.668;23.250;2023-12-20T05:39:42;44.00;;;25.90;;
5297;SDS011;14738;42.668;23.250;2023-12-20T05:42:07;42.00;;;25.97;;
5297;SDS011;14738;42.668;23.250;2023-12-20T05:44:32;39.83;;;25.33;;
5297;SDS011;14738;42.668;23.250;2023-12-20T05:46:58;38.73;;;25.40;;
5297;SDS011;14738;42.668;23.250;2023-12-20T05:49:24;45.20;;;28.07;;
5297;SDS011;14738;42.668;23.250;2023-12-20T05:51:50;41.80;;;24.63;;
5297;SDS011;14738;42.668;23.250;2023-12-20T05:54:16;40.33;;;25.83;;
5297;SDS011;14738;42.668;23.250;2023-12-20T05:56:41;42.43;;;27.03;;
5297;SDS011;14738;42.668;23.250;2023-12-20T05:59:07;63.90;;;39.67;;
5297;SDS011;14738;42.668;23.250;2023-12-20T06:01:32;58.43;;;36.30;;
5297;SDS011;14738;42.668;23.250;2023-12-20T06:03:57;57.57;;;39.87;;
5297;SDS011;14738;42.668;23.250;2023-12-20T06:06:23;61.97;;;41.33;;
5297;SDS011;14738;42.668;23.250;2023-12-20T06:08:49;81.03;;;44.67;;
5297;SDS011;14738;42.668;23.250;2023-12-20T06:11:14;87.10;;;51.60;;
5297;SDS011;14738;42.668;23.250;2023-12-20T06:13:39;86.40;;;51.60;;
5297;SDS011;14738;42.668;23.250;2023-12-20T06:16:06;76.10;;;48.50;;
5297;SDS011;14738;42.668;23.250;2023-12-20T06:18:34;75.70;;;44.83;;
5297;SDS011;14738;42.668;23.250;2023-12-20T06:21:01;69.70;;;43.00;;
5297;SDS011;14738;42.668;23.250;2023-12-20T06:23:27;74.80;;;44.70;;
5297;SDS011;14738;42.668;23.250;2023-12-20T06:25:52;71.90;;;46.83;;
5297;SDS011;14738;42.668;23.250;2023-12-20T06:28:18;104.40;;;66.67;;
5297;SDS011;14738;42.668;23.250;2023-12-20T06:30:43;97.23;;;59.57;;
5297;SDS011;14738;42.668;23.250;2023-12-20T06:33:09;108.30;;;62.37;;
5297;SDS011;14738;42.668;23.250;2023-12-20T06:35:36;115.10;;;69.10;;
5297;SDS011;14738;42.668;23.250;2023-12-20T06:38:01;112.03;;;68.87;;
5297;SDS011;14738;42.668;23.250;2023-12-20T06:40:27;119.83;;;66.70;;
5297;SDS011;14738;42.668;23.250;2023-12-20T06:42:52;121.53;;;68.70;;
5297;SDS011;14738;42.668;23.250;2023-12-20T06:45:18;116.03;;;68.70;;
5297;SDS011;14738;42.668;23.250;2023-12-20T06:47:43;122.57;;;74.83;;
5297;SDS011;14738;42.668;23.250;2023-12-20T06:50:08;116.53;;;63.27;;
5297;SDS011;14738;42.668;23.250;2023-12-20T06:52:34;139.93;;;70.60;;
5297;SDS011;14738;42.668;23.250;2023-12-20T06:55:00;125.70;;;69.00;;
5297;SDS011;14738;42.668;23.250;2023-12-20T06:57:26;134.37;;;75.40;;
5297;SDS011;14738;42.668;23.250;2023-12-20T06:59:52;139.80;;;74.37;;
5297;SDS011;14738;42.668;23.250;2023-12-20T07:02:18;122.30;;;69.60;;
5297;SDS011;14738;42.668;23.250;2023-12-20T07:04:43;139.83;;;75.17;;
5297;SDS011;14738;42.668;23.250;2023-12-20T07:07:09;133.77;;;71.07;;
5297;SDS011;14738;42.668;23.250;2023-12-20T07:09:34;137.60;;;73.23;;
5297;SDS011;14738;42.668;23.250;2023-12-20T07:12:00;140.33;;;76.67;;
5297;SDS011;14738;42.668;23.250;2023-12-20T07:14:25;148.97;;;73.50;;
5297;SDS011;14738;42.668;23.250;2023-12-20T07:16:50;130.83;;;72.07;;
5297;SDS011;14738;42.668;23.250;2023-12-20T07:19:16;121.63;;;67.20;;
5297;SDS011;14738;42.668;23.250;2023-12-20T07:21:41;140.17;;;73.40;;
5297;SDS011;14738;42.668;23.250;2023-12-20T07:24:07;148.70;;;73.53;;
5297;SDS011;14738;42.668;23.250;2023-12-20T07:26:32;133.77;;;70.00;;
5297;SDS011;14738;42.668;23.250;2023-12-20T07:28:59;112.10;;;66.93;;
5297;SDS011;14738;42.668;23.250;2023-12-20T07:31:24;118.33;;;68.50;;
5297;SDS011;14738;42.668;23.250;2023-12-20T07:33:49;119.53;;;70.50;;
5297;SDS011;14738;42.668;23.250;2023-12-20T07:36:15;110.27;;;65.60;;
5297;SDS011;14738;42.668;23.250;2023-12-20T07:38:40;123.97;;;71.27;;
5297;SDS011;14738;42.668;23.250;2023-12-20T07:41:09;131.03;;;74.93;;
5297;SDS011;14738;42.668;23.250;2023-12-20T07:43:34;122.23;;;67.13;;
5297;SDS011;14738;42.668;23.250;2023-12-20T07:46:03;124.50;;;66.47;;
5297;SDS011;14738;42.668;23.250;2023-12-20T07:48:33;119.00;;;64.67;;
5297;SDS011;14738;42.668;23.250;2023-12-20T07:51:00;130.77;;;67.87;;
5297;SDS011;14738;42.668;23.250;2023-12-20T07:53:26;140.77;;;74.47;;
5297;SDS011;14738;42.668;23.250;2023-12-20T07:55:52;130.73;;;71.00;;
5297;SDS011;14738;42.668;23.250;2023-12-20T07:58:17;121.03;;;73.27;;
5297;SDS011;14738;42.668;23.250;2023-12-20T08:00:43;133.80;;;70.27;;
5297;SDS011;14738;42.668;23.250;2023-12-20T08:03:09;113.33;;;65.90;;
5297;SDS011;14738;42.668;23.250;2023-12-20T08:05:36;122.47;;;67.60;;
5297;SDS011;14738;42.668;23.250;2023-12-20T08:08:04;108.43;;;59.97;;
5297;SDS011;14738;42.668;23.250;2023-12-20T08:10:30;102.97;;;61.20;;
5297;SDS011;14738;42.668;23.250;2023-12-20T08:12:55;103.83;;;61.40;;
5297;SDS011;14738;42.668;23.250;2023-12-20T08:15:21;99.70;;;57.93;;
5297;SDS011;14738;42.668;23.250;2023-12-20T08:17:47;96.37;;;56.53;;
5297;SDS011;14738;42.668;23.250;2023-12-20T08:20:12;97.70;;;53.57;;
5297;SDS011;14738;42.668;23.250;2023-12-20T08:22:38;97.37;;;56.70;;
5297;SDS011;14738;42.668;23.250;2023-12-20T08:25:04;101.93;;;59.63;;
5297;SDS011;14738;42.668;23.250;2023-12-20T08:27:29;101.53;;;59.80;;
5297;SDS011;14738;42.668;23.250;2023-12-20T08:29:56;97.90;;;59.40;;
5297;SDS011;14738;42.668;23.250;2023-12-20T08:32:24;94.10;;;58.80;;
5297;SDS011;14738;42.668;23.250;2023-12-20T08:34:51;104.23;;;60.57;;
5297;SDS011;14738;42.668;23.250;2023-12-20T08:37:17;107.47;;;61.40;;
5297;SDS011;14738;42.668;23.250;2023-12-20T08:39:43;115.17;;;64.00;;
5297;SDS011;14738;42.668;23.250;2023-12-20T08:42:09;106.03;;;61.83;;
5297;SDS011;14738;42.668;23.250;2023-12-20T08:44:34;94.63;;;57.27;;
5297;SDS011;14738;42.668;23.250;2023-12-20T08:46:59;110.10;;;60.47;;
5297;SDS011;14738;42.668;23.250;2023-12-20T08:49:25;100.77;;;56.87;;
5297;SDS011;14738;42.668;23.250;2023-12-20T08:51:50;98.77;;;58.37;;
5297;SDS011;14738;42.668;23.250;2023-12-20T08:54:16;103.83;;;59.60;;
5297;SDS011;14738;42.668;23.250;2023-12-20T08:56:42;106.43;;;61.10;;
5297;SDS011;14738;42.668;23.250;2023-12-20T08:59:08;128.10;;;62.37;;
5297;SDS011;14738;42.668;23.250;2023-12-20T09:01:34;103.03;;;62.40;;
5297;SDS011;14738;42.668;23.250;2023-12-20T09:04:00;112.33;;;62.63;;
5297;SDS011;14738;42.668;23.250;2023-12-20T09:06:25;105.00;;;63.43;;
5297;SDS011;14738;42.668;23.250;2023-12-20T09:08:51;116.03;;;68.40;;
5297;SDS011;14738;42.668;23.250;2023-12-20T09:11:16;107.43;;;63.00;;
5297;SDS011;14738;42.668;23.250;2023-12-20T09:13:42;126.80;;;69.03;;
5297;SDS011;14738;42.668;23.250;2023-12-20T09:16:09;120.13;;;68.80;;
5297;SDS011;14738;42.668;23.250;2023-12-20T09:18:34;113.93;;;68.90;;
5297;SDS011;14738;42.668;23.250;2023-12-20T09:21:00;121.60;;;70.97;;
5297;SDS011;14738;42.668;23.250;2023-12-20T09:23:25;132.67;;;73.47;;
5297;SDS011;14738;42.668;23.250;2023-12-20T09:25:51;132.97;;;72.57;;
5297;SDS011;14738;42.668;23.250;2023-12-20T09:28:16;140.90;;;74.20;;
5297;SDS011;14738;42.668;23.250;2023-12-20T09:30:41;128.80;;;74.20;;
5297;SDS011;14738;42.668;23.250;2023-12-20T09:33:07;131.73;;;73.63;;
5297;SDS011;14738;42.668;23.250;2023-12-20T09:35:32;140.70;;;76.20;;
5297;SDS011;14738;42.668;23.250;2023-12-20T09:37:58;140.60;;;77.70;;
5297;SDS011;14738;42.668;23.250;2023-12-20T09:40:23;132.53;;;72.73;;
5297;SDS011;14738;42.668;23.250;2023-12-20T09:42:56;132.73;;;70.37;;
5297;SDS011;14738;42.668;23.250;2023-12-20T09:45:22;126.03;;;70.47;;
5297;SDS011;14738;42.668;23.250;2023-12-20T09:47:52;119.20;;;68.80;;
5297;SDS011;14738;42.668;23.250;2023-12-20T09:50:19;129.03;;;72.10;;
5297;SDS011;14738;42.668;23.250;2023-12-20T09:52:46;126.43;;;74.10;;
5297;SDS011;14738;42.668;23.250;2023-12-20T09:55:15;136.37;;;72.67;;
5297;SDS011;14738;42.668;23.250;2023-12-20T09:57:42;125.30;;;69.20;;
5297;SDS011;14738;42.668;23.250;2023-12-20T10:00:08;119.80;;;68.57;;
5297;SDS011;14738;42.668;23.250;2023-12-20T10:02:34;114.23;;;66.57;;
5297;SDS011;14738;42.668;23.250;2023-12-20T10:05:02;123.03;;;66.93;;
5297;SDS011;14738;42.668;23.250;2023-12-20T10:07:34;126.77;;;73.50;;
5297;SDS011;14738;42.668;23.250;2023-12-20T10:10:00;136.40;;;72.97;;
5297;SDS011;14738;42.668;23.250;2023-12-20T10:12:27;127.97;;;68.03;;
5297;SDS011;14738;42.668;23.250;2023-12-20T10:14:52;137.57;;;72.93;;
5297;SDS011;14738;42.668;23.250;2023-12-20T10:17:18;131.10;;;75.00;;
5297;SDS011;14738;42.668;23.250;2023-12-20T10:19:43;131.83;;;72.07;;
5297;SDS011;14738;42.668;23.250;2023-12-20T10:22:08;128.70;;;73.90;;
5297;SDS011;14738;42.668;23.250;2023-12-20T10:24:35;128.87;;;74.03;;
5297;SDS011;14738;42.668;23.250;2023-12-20T10:27:01;129.03;;;72.97;;
5297;SDS011;14738;42.668;23.250;2023-12-20T10:29:31;123.50;;;73.10;;
5297;SDS011;14738;42.668;23.250;2023-12-20T10:31:57;135.07;;;75.30;;
5297;SDS011;14738;42.668;23.250;2023-12-20T10:34:23;126.50;;;74.00;;
5297;SDS011;14738;42.668;23.250;2023-12-20T10:36:49;131.73;;;75.53;;
5297;SDS011;14738;42.668;23.250;2023-12-20T10:39:14;121.93;;;76.90;;
5297;SDS011;14738;42.668;23.250;2023-12-20T10:41:40;122.03;;;73.97;;
5297;SDS011;14738;42.668;23.250;2023-12-20T10:44:08;125.17;;;73.70;;
5297;SDS011;14738;42.668;23.250;2023-12-20T10:46:35;132.40;;;76.40;;
5297;SDS011;14738;42.668;23.250;2023-12-20T10:49:03;130.97;;;77.07;;
5297;SDS011;14738;42.668;23.250;2023-12-20T10:51:30;133.60;;;79.27;;
5297;SDS011;14738;42.668;23.250;2023-12-20T10:53:56;130.37;;;77.47;;
5297;SDS011;14738;42.668;23.250;2023-12-20T10:56:22;125.53;;;77.37;;
5297;SDS011;14738;42.668;23.250;2023-12-20T10:58:51;133.67;;;75.90;;
5297;SDS011;14738;42.668;23.250;2023-12-20T11:01:17;132.90;;;77.27;;
5297;SDS011;14738;42.668;23.250;2023-12-20T11:03:50;124.43;;;74.70;;
5297;SDS011;14738;42.668;23.250;2023-12-20T11:14:36;101.83;;;63.23;;
5297;SDS011;14738;42.668;23.250;2023-12-20T11:17:11;107.87;;;65.77;;
5297;SDS011;14738;42.668;23.250;2023-12-20T11:22:21;115.13;;;69.23;;
5297;SDS011;14738;42.668;23.250;2023-12-20T11:24:48;128.33;;;70.83;;
5297;SDS011;14738;42.668;23.250;2023-12-20T11:27:15;121.73;;;68.40;;
5297;SDS011;14738;42.668;23.250;2023-12-20T11:29:40;122.43;;;69.33;;
5297;SDS011;14738;42.668;23.250;2023-12-20T11:32:27;128.57;;;68.10;;
5297;SDS011;14738;42.668;23.250;2023-12-20T11:34:53;125.23;;;73.63;;
5297;SDS011;14738;42.668;23.250;2023-12-20T11:37:39;113.73;;;68.13;;
5297;SDS011;14738;42.668;23.250;2023-12-20T11:40:11;128.90;;;74.90;;
5297;SDS011;14738;42.668;23.250;2023-12-20T11:42:37;122.10;;;72.47;;
5297;SDS011;14738;42.668;23.250;2023-12-20T11:45:08;142.67;;;79.13;;
5297;SDS011;14738;42.668;23.250;2023-12-20T11:47:34;119.97;;;73.07;;
5297;SDS011;14738;42.668;23.250;2023-12-20T11:50:00;124.73;;;74.20;;
5297;SDS011;14738;42.668;23.250;2023-12-20T11:52:30;128.67;;;76.80;;
5297;SDS011;14738;42.668;23.250;2023-12-20T11:54:55;130.50;;;77.70;;
5297;SDS011;14738;42.668;23.250;2023-12-20T11:57:21;139.33;;;79.17;;
5297;SDS011;14738;42.668;23.250;2023-12-20T11:59:47;147.13;;;77.80;;
5297;SDS011;14738;42.668;23.250;2023-12-20T12:02:12;132.23;;;79.57;;
5297;SDS011;14738;42.668;23.250;2023-12-20T12:04:40;136.90;;;79.87;;
5297;SDS011;14738;42.668;23.250;2023-12-20T12:07:06;129.10;;;78.20;;
5297;SDS011;14738;42.668;23.250;2023-12-20T12:09:32;130.10;;;80.07;;
5297;SDS011;14738;42.668;23.250;2023-12-20T12:11:57;135.50;;;79.37;;
5297;SDS011;14738;42.668;23.250;2023-12-20T12:14:23;123.43;;;80.10;;
5297;SDS011;14738;42.668;23.250;2023-12-20T12:16:49;132.70;;;80.80;;
5297;SDS011;14738;42.668;23.250;2023-12-20T12:19:24;131.70;;;81.13;;
5297;SDS011;14738;42.668;23.250;2023-12-20T12:21:51;140.93;;;81.20;;
5297;SDS011;14738;42.668;23.250;2023-12-20T12:24:28;143.57;;;80.80;;
5297;SDS011;14738;42.668;23.250;2023-12-20T12:26:56;134.67;;;81.63;;
5297;SDS011;14738;42.668;23.250;2023-12-20T12:29:22;149.57;;;87.40;;
5297;SDS011;14738;42.668;23.250;2023-12-20T12:31:49;147.53;;;84.53;;
5297;SDS011;14738;42.668;23.250;2023-12-20T12:34:15;138.47;;;81.40;;
5297;SDS011;14738;42.668;23.250;2023-12-20T12:36:41;148.03;;;78.23;;
5297;SDS011;14738;42.668;23.250;2023-12-20T12:39:06;141.20;;;84.60;;
5297;SDS011;14738;42.668;23.250;2023-12-20T12:41:32;146.30;;;84.07;;
5297;SDS011;14738;42.668;23.250;2023-12-20T12:43:59;147.47;;;82.57;;
5297;SDS011;14738;42.668;23.250;2023-12-20T12:46:24;136.00;;;79.90;;
5297;SDS011;14738;42.668;23.250;2023-12-20T12:48:49;135.83;;;81.07;;
5297;SDS011;14738;42.668;23.250;2023-12-20T12:51:15;135.00;;;78.67;;
5297;SDS011;14738;42.668;23.250;2023-12-20T12:53:41;130.90;;;76.97;;
5297;SDS011;14738;42.668;23.250;2023-12-20T12:56:06;138.73;;;76.17;;
5297;SDS011;14738;42.668;23.250;2023-12-20T12:58:32;136.03;;;73.90;;
5297;SDS011;14738;42.668;23.250;2023-12-20T13:00:58;126.87;;;73.00;;
5297;SDS011;14738;42.668;23.250;2023-12-20T13:03:23;126.63;;;74.13;;
5297;SDS011;14738;42.668;23.250;2023-12-20T13:05:49;123.50;;;69.50;;
5297;SDS011;14738;42.668;23.250;2023-12-20T13:08:15;122.30;;;69.70;;
5297;SDS011;14738;42.668;23.250;2023-12-20T13:10:40;111.97;;;64.83;;
5297;SDS011;14738;42.668;23.250;2023-12-20T13:13:05;117.87;;;69.60;;
5297;SDS011;14738;42.668;23.250;2023-12-20T13:15:31;106.80;;;63.27;;
5297;SDS011;14738;42.668;23.250;2023-12-20T13:17:56;123.20;;;69.50;;
5297;SDS011;14738;42.668;23.250;2023-12-20T13:20:22;121.27;;;67.87;;
5297;SDS011;14738;42.668;23.250;2023-12-20T13:22:47;117.90;;;66.37;;
5297;SDS011;14738;42.668;23.250;2023-12-20T13:25:13;119.83;;;66.03;;
5297;SDS011;14738;42.668;23.250;2023-12-20T13:27:38;113.73;;;65.87;;
5297;SDS011;14738;42.668;23.250;2023-12-20T13:30:04;119.97;;;63.47;;
5297;SDS011;14738;42.668;23.250;2023-12-20T13:32:30;121.47;;;65.53;;
5297;SDS011;14738;42.668;23.250;2023-12-20T13:34:56;129.23;;;64.67;;
5297;SDS011;14738;42.668;23.250;2023-12-20T13:37:21;108.23;;;63.00;;
5297;SDS011;14738;42.668;23.250;2023-12-20T13:39:47;123.27;;;65.67;;
5297;SDS011;14738;42.668;23.250;2023-12-20T13:42:12;119.47;;;65.17;;
5297;SDS011;14738;42.668;23.250;2023-12-20T13:44:38;127.00;;;64.70;;
5297;SDS011;14738;42.668;23.250;2023-12-20T13:47:03;124.17;;;68.70;;
5297;SDS011;14738;42.668;23.250;2023-12-20T13:49:29;118.67;;;67.27;;
5297;SDS011;14738;42.668;23.250;2023-12-20T13:51:54;127.83;;;69.90;;
5297;SDS011;14738;42.668;23.250;2023-12-20T13:54:20;136.10;;;68.17;;
5297;SDS011;14738;42.668;23.250;2023-12-20T13:56:47;119.80;;;67.00;;
5297;SDS011;14738;42.668;23.250;2023-12-20T13:59:12;123.60;;;71.00;;
5297;SDS011;14738;42.668;23.250;2023-12-20T14:01:40;130.80;;;71.10;;
5297;SDS011;14738;42.668;23.250;2023-12-20T14:04:05;129.27;;;75.80;;
5297;SDS011;14738;42.668;23.250;2023-12-20T14:06:31;150.30;;;88.43;;
5297;SDS011;14738;42.668;23.250;2023-12-20T14:08:57;158.80;;;91.20;;
5297;SDS011;14738;42.668;23.250;2023-12-20T14:11:25;151.97;;;89.73;;
5297;SDS011;14738;42.668;23.250;2023-12-20T14:13:51;151.43;;;87.63;;
5297;SDS011;14738;42.668;23.250;2023-12-20T14:16:19;158.77;;;89.57;;
5297;SDS011;14738;42.668;23.250;2023-12-20T14:18:44;171.03;;;93.87;;
5297;SDS011;14738;42.668;23.250;2023-12-20T14:21:09;168.17;;;91.27;;